Time;durP1;ratioP1;P1;durP2;ratioP2;P2;SDS_P1;SDS_P2;PMS_P1;PMS_P2;Temp;Humidity;BMP_temperature;BMP_pressure;BME280_temperature;BME280_humidity;BME280_pressure;Samples;Min_cycle;Max_cycle;Signal;HPM_P1;HPM_P2
2023/11/06 00:01:34;;;;;;;3.23;2.70;;;;;;;;;;5072524;28;20482;-64
2023/11/06 00:04:00;;;;;;;3.20;2.40;;;;;;;;;;5072365;28;20498;-65
2023/11/06 00:06:28;;;;;;;5.63;4.90;;;;;;;;;;5073909;28;20443;-64
2023/11/06 00:08:55;;;;;;;4.03;3.00;;;;;;;;;;5071255;28;20448;-64
2023/11/06 00:11:21;;;;;;;4.07;2.83;;;;;;;;;;5086848;28;20521;-64
2023/11/06 00:13:47;;;;;;;3.60;2.83;;;;;;;;;;5065895;28;20480;-64
2023/11/06 00:16:14;;;;;;;9.40;3.53;;;;;;;;;;5078612;28;20508;-64
2023/11/06 00:18:41;;;;;;;6.87;2.67;;;;;;;;;;5073436;28;20452;-65
2023/11/06 00:21:11;;;;;;;10.20;3.90;;;;;;;;;;5076483;28;20889;-65
2023/11/06 00:23:39;;;;;;;11.03;3.17;;;;;;;;;;5064794;28;20472;-65
2023/11/06 00:26:06;;;;;;;3.97;3.57;;;;;;;;;;5069574;28;20502;-64
2023/11/06 00:28:32;;;;;;;5.83;3.10;;;;;;;;;;5078529;28;20456;-65
2023/11/06 00:30:58;;;;;;;6.30;3.53;;;;;;;;;;5056730;28;21017;-64
2023/11/06 00:33:25;;;;;;;6.13;2.87;;;;;;;;;;5074005;28;20476;-64
2023/11/06 00:35:51;;;;;;;8.03;3.20;;;;;;;;;;5083492;28;20554;-64
2023/11/06 00:38:18;;;;;;;5.67;3.37;;;;;;;;;;5078166;28;20448;-64
2023/11/06 00:40:45;;;;;;;4.33;3.40;;;;;;;;;;5071799;28;20451;-64
2023/11/06 00:43:12;;;;;;;4.20;2.90;;;;;;;;;;5078146;28;20486;-64
2023/11/06 00:45:38;;;;;;;6.40;3.93;;;;;;;;;;5077807;28;20547;-64
2023/11/06 00:48:06;;;;;;;6.83;3.47;;;;;;;;;;5077342;28;20497;-64
2023/11/06 00:50:33;;;;;;;4.60;3.93;;;;;;;;;;5072994;28;20460;-65
2023/11/06 00:52:59;;;;;;;7.50;3.33;;;;;;;;;;5081298;28;20455;-65
2023/11/06 00:55:27;;;;;;;3.83;3.37;;;;;;;;;;5073083;28;20509;-65
2023/11/06 00:57:54;;;;;;;3.63;3.33;;;;;;;;;;5079725;28;20455;-65
2023/11/06 01:00:22;;;;;;;3.83;3.53;;;;;;;;;;5073883;28;20445;-65
2023/11/06 01:02:48;;;;;;;9.83;4.07;;;;;;;;;;5079258;28;20953;-64
2023/11/06 01:05:14;;;;;;;5.20;2.70;;;;;;;;;;5075715;28;20494;-64
2023/11/06 01:07:41;;;;;;;3.70;3.37;;;;;;;;;;5082627;28;20478;-65
2023/11/06 01:10:08;;;;;;;4.20;3.70;;;;;;;;;;5080899;28;20494;-64
2023/11/06 01:12:35;;;;;;;7.20;3.80;;;;;;;;;;5078232;28;20620;-64
2023/11/06 01:15:02;;;;;;;4.77;2.77;;;;;;;;;;5078486;28;20510;-64
2023/11/06 01:17:30;;;;;;;3.90;3.20;;;;;;;;;;5084453;28;20470;-64
2023/11/06 01:19:56;;;;;;;5.77;3.30;;;;;;;;;;5076057;28;20494;-64
2023/11/06 01:22:22;;;;;;;5.50;3.43;;;;;;;;;;5078513;28;20494;-67
2023/11/06 01:24:49;;;;;;;8.03;3.10;;;;;;;;;;5079723;28;21024;-64
2023/11/06 01:27:15;;;;;;;6.60;3.53;;;;;;;;;;5075100;28;20451;-64
2023/11/06 01:29:42;;;;;;;4.87;2.90;;;;;;;;;;5081546;28;20467;-64
2023/11/06 01:32:31;;;;;;;5.90;3.27;;;;;;;;;;5155681;27;20649;-64
2023/11/06 01:34:58;;;;;;;5.67;4.23;;;;;;;;;;5133367;27;20454;-64
2023/11/06 01:37:26;;;;;;;7.33;3.37;;;;;;;;;;5138462;27;20436;-64
2023/11/06 01:39:52;;;;;;;3.83;2.93;;;;;;;;;;5129842;27;20529;-63
2023/11/06 01:42:18;;;;;;;5.83;4.70;;;;;;;;;;5122987;27;20888;-63
2023/11/06 01:44:45;;;;;;;2.73;2.50;;;;;;;;;;5131452;27;20489;-63
2023/11/06 01:47:11;;;;;;;3.87;3.00;;;;;;;;;;5136619;27;20485;-63
2023/11/06 01:49:41;;;;;;;7.03;2.80;;;;;;;;;;5135001;27;20492;-64
2023/11/06 01:52:08;;;;;;;5.20;3.10;;;;;;;;;;5131147;27;20593;-63
2023/11/06 01:54:35;;;;;;;6.70;3.17;;;;;;;;;;5122991;27;20477;-65
2023/11/06 01:57:03;;;;;;;4.10;3.30;;;;;;;;;;5127246;27;20508;-65
2023/11/06 01:59:29;;;;;;;5.80;3.13;;;;;;;;;;5136047;27;20462;-64
2023/11/06 02:01:57;;;;;;;6.93;3.47;;;;;;;;;;5130856;27;20473;-65
2023/11/06 02:04:24;;;;;;;3.70;3.20;;;;;;;;;;5133848;27;20479;-65
2023/11/06 02:06:53;;;;;;;4.00;3.60;;;;;;;;;;5138291;27;20874;-64
2023/11/06 02:09:21;;;;;;;3.90;3.20;;;;;;;;;;5129411;27;20450;-64
2023/11/06 02:11:47;;;;;;;5.90;3.50;;;;;;;;;;5123260;27;20518;-65
2023/11/06 02:14:15;;;;;;;4.23;2.97;;;;;;;;;;5130226;27;20535;-65
2023/11/06 02:16:41;;;;;;;4.70;3.10;;;;;;;;;;5137830;27;20460;-65
2023/11/06 02:19:08;;;;;;;4.10;2.87;;;;;;;;;;5116958;27;20473;-65
2023/11/06 02:21:35;;;;;;;3.43;2.90;;;;;;;;;;5136475;27;20444;-65
2023/11/06 02:24:03;;;;;;;6.87;3.27;;;;;;;;;;5132359;27;20486;-65
2023/11/06 02:26:30;;;;;;;6.40;2.80;;;;;;;;;;5135354;27;20449;-65
2023/11/06 02:28:56;;;;;;;4.80;3.20;;;;;;;;;;5128900;27;20449;-65
2023/11/06 02:31:23;;;;;;;3.90;2.70;;;;;;;;;;5139028;27;20517;-64
2023/11/06 02:33:49;;;;;;;3.57;3.17;;;;;;;;;;5138250;27;20504;-64
2023/11/06 02:36:16;;;;;;;4.00;2.97;;;;;;;;;;5124775;27;20465;-63
2023/11/06 02:38:43;;;;;;;6.37;2.77;;;;;;;;;;5135600;27;20453;-63
2023/11/06 02:41:11;;;;;;;6.37;3.23;;;;;;;;;;5123115;27;20450;-64
2023/11/06 02:43:37;;;;;;;4.63;2.70;;;;;;;;;;5107924;27;20449;-64
2023/11/06 02:46:04;;;;;;;11.90;2.93;;;;;;;;;;5133413;27;20488;-64
2023/11/06 02:48:31;;;;;;;4.70;2.67;;;;;;;;;;5115039;27;20446;-64
2023/11/06 02:50:57;;;;;;;3.03;2.17;;;;;;;;;;5116139;27;20908;-65
2023/11/06 02:53:25;;;;;;;10.13;3.10;;;;;;;;;;5137371;27;20442;-63
2023/11/06 02:55:53;;;;;;;8.07;2.70;;;;;;;;;;5135924;27;20461;-64
2023/11/06 02:58:21;;;;;;;11.10;2.70;;;;;;;;;;5142444;27;20449;-65
2023/11/06 03:00:47;;;;;;;4.73;2.90;;;;;;;;;;5134670;27;20453;-65
2023/11/06 03:03:13;;;;;;;3.27;2.90;;;;;;;;;;5138269;27;20881;-65
2023/11/06 03:05:40;;;;;;;4.23;2.80;;;;;;;;;;5134948;27;20514;-64
2023/11/06 03:08:06;;;;;;;3.20;2.90;;;;;;;;;;5142051;27;20445;-64
2023/11/06 03:10:33;;;;;;;3.70;2.30;;;;;;;;;;5136827;27;20541;-64
2023/11/06 03:12:59;;;;;;;4.33;2.70;;;;;;;;;;5142629;27;20437;-64
2023/11/06 03:15:27;;;;;;;3.03;2.70;;;;;;;;;;5133944;27;20479;-64
2023/11/06 03:17:53;;;;;;;4.93;2.70;;;;;;;;;;5137764;27;20483;-64
2023/11/06 03:20:20;;;;;;;2.60;2.40;;;;;;;;;;5133271;27;20521;-64
2023/11/06 03:22:46;;;;;;;5.57;2.90;;;;;;;;;;5138768;27;20476;-64
2023/11/06 03:25:12;;;;;;;6.07;2.40;;;;;;;;;;5143155;27;20559;-64
2023/11/06 03:27:39;;;;;;;3.97;3.13;;;;;;;;;;5133380;27;20450;-64
2023/11/06 03:30:06;;;;;;;3.07;2.43;;;;;;;;;;5140519;27;20543;-63
2023/11/06 03:32:34;;;;;;;3.60;2.33;;;;;;;;;;5138493;27;20515;-64
2023/11/06 03:35:01;;;;;;;2.47;2.27;;;;;;;;;;5146688;27;20496;-64
2023/11/06 03:37:27;;;;;;;7.30;3.03;;;;;;;;;;5140118;27;20449;-64
2023/11/06 03:39:54;;;;;;;5.10;2.90;;;;;;;;;;5137638;27;20981;-64
2023/11/06 03:42:20;;;;;;;6.03;3.30;;;;;;;;;;5143048;27;20454;-64
2023/11/06 03:44:46;;;;;;;7.30;2.50;;;;;;;;;;5130888;27;20454;-64
2023/11/06 03:47:13;;;;;;;6.90;3.03;;;;;;;;;;5136776;27;20481;-64
2023/11/06 03:49:41;;;;;;;6.67;3.10;;;;;;;;;;5131396;27;20523;-65
2023/11/06 03:52:10;;;;;;;5.93;2.90;;;;;;;;;;5134003;27;20560;-64
2023/11/06 03:54:37;;;;;;;8.53;3.13;;;;;;;;;;5127333;27;20453;-65
2023/11/06 03:57:03;;;;;;;4.87;2.63;;;;;;;;;;5134680;27;20478;-65
2023/11/06 03:59:30;;;;;;;9.23;3.00;;;;;;;;;;5137535;27;20450;-65
2023/11/06 04:01:56;;;;;;;6.03;2.90;;;;;;;;;;5139761;27;20444;-66
2023/11/06 04:04:23;;;;;;;5.70;2.97;;;;;;;;;;5143431;27;20481;-65
2023/11/06 04:06:50;;;;;;;2.90;2.53;;;;;;;;;;5140480;27;20554;-65
2023/11/06 04:09:17;;;;;;;3.77;2.77;;;;;;;;;;5139875;27;20491;-66
2023/11/06 04:11:45;;;;;;;5.60;3.57;;;;;;;;;;5132061;27;20573;-65
2023/11/06 04:14:11;;;;;;;4.70;2.93;;;;;;;;;;5144841;27;20484;-65
2023/11/06 04:16:38;;;;;;;5.80;3.20;;;;;;;;;;5136974;27;21110;-65
2023/11/06 04:19:04;;;;;;;5.67;3.20;;;;;;;;;;5133283;27;21062;-65
2023/11/06 04:21:31;;;;;;;5.03;2.50;;;;;;;;;;5137025;27;20462;-65
2023/11/06 04:23:58;;;;;;;8.63;3.33;;;;;;;;;;5134864;27;21078;-65
2023/11/06 04:26:25;;;;;;;5.20;2.97;;;;;;;;;;5134395;27;20536;-65
2023/11/06 04:28:52;;;;;;;9.00;3.27;;;;;;;;;;5141358;27;20484;-64
2023/11/06 04:31:18;;;;;;;7.03;3.60;;;;;;;;;;5137544;27;20584;-65
2023/11/06 04:33:44;;;;;;;6.83;3.33;;;;;;;;;;5143925;27;20464;-64
2023/11/06 04:36:11;;;;;;;6.83;3.30;;;;;;;;;;5135699;27;20485;-65
2023/11/06 04:38:37;;;;;;;7.47;3.53;;;;;;;;;;5132266;27;20876;-65
2023/11/06 04:41:05;;;;;;;8.30;3.23;;;;;;;;;;5142226;27;20521;-65
2023/11/06 04:43:31;;;;;;;5.53;3.10;;;;;;;;;;5137438;27;20468;-65
2023/11/06 04:45:58;;;;;;;6.83;3.03;;;;;;;;;;5126416;27;20470;-64
2023/11/06 04:48:24;;;;;;;5.60;3.57;;;;;;;;;;5144795;27;20445;-65
2023/11/06 04:50:51;;;;;;;5.10;3.20;;;;;;;;;;5136545;27;20460;-65
2023/11/06 04:53:17;;;;;;;3.63;2.73;;;;;;;;;;5136605;27;20921;-65
2023/11/06 04:55:44;;;;;;;8.00;3.47;;;;;;;;;;5152033;27;20780;-65
2023/11/06 04:58:11;;;;;;;7.67;4.07;;;;;;;;;;5126212;27;20453;-65
2023/11/06 05:00:38;;;;;;;8.70;4.00;;;;;;;;;;5135963;27;20452;-65
2023/11/06 05:03:04;;;;;;;4.13;3.73;;;;;;;;;;5131046;27;20434;-65
2023/11/06 05:05:31;;;;;;;7.13;3.43;;;;;;;;;;5125293;27;20458;-65
2023/11/06 05:07:57;;;;;;;3.83;3.43;;;;;;;;;;5130639;27;20472;-65
2023/11/06 05:10:23;;;;;;;10.80;4.07;;;;;;;;;;5129761;27;20508;-65
2023/11/06 05:12:50;;;;;;;5.63;3.63;;;;;;;;;;5136709;27;20519;-65
2023/11/06 05:15:18;;;;;;;5.17;3.40;;;;;;;;;;5137068;27;20513;-65
2023/11/06 05:17:44;;;;;;;4.73;3.40;;;;;;;;;;5132159;27;20488;-65
2023/11/06 05:20:12;;;;;;;5.90;3.63;;;;;;;;;;5137712;27;20484;-65
2023/11/06 05:22:39;;;;;;;6.17;3.67;;;;;;;;;;5138520;27;20450;-65
2023/11/06 05:25:05;;;;;;;6.93;3.73;;;;;;;;;;5127681;27;20850;-64
2023/11/06 05:27:32;;;;;;;7.10;4.13;;;;;;;;;;5141434;27;20461;-65
2023/11/06 05:29:58;;;;;;;13.53;3.30;;;;;;;;;;5130890;27;20492;-64
2023/11/06 05:32:26;;;;;;;6.30;3.30;;;;;;;;;;5137924;27;20513;-65
2023/11/06 05:34:53;;;;;;;4.80;4.10;;;;;;;;;;5131739;27;20549;-64
2023/11/06 05:37:20;;;;;;;8.80;4.20;;;;;;;;;;5131603;27;20460;-65
2023/11/06 05:39:46;;;;;;;5.17;3.70;;;;;;;;;;5128475;27;20484;-64
2023/11/06 05:42:13;;;;;;;3.27;2.80;;;;;;;;;;5133837;27;20510;-64
2023/11/06 05:44:41;;;;;;;6.50;3.33;;;;;;;;;;5125142;27;20454;-65
2023/11/06 05:47:08;;;;;;;5.90;3.20;;;;;;;;;;5135318;27;20479;-65
2023/11/06 05:49:36;;;;;;;5.07;3.07;;;;;;;;;;5138926;27;20472;-65
2023/11/06 05:52:03;;;;;;;7.60;4.00;;;;;;;;;;5140437;27;20480;-69
2023/11/06 05:54:29;;;;;;;7.70;3.40;;;;;;;;;;5135576;27;20476;-69
2023/11/06 05:56:55;;;;;;;4.73;4.20;;;;;;;;;;5134845;27;20485;-68
2023/11/06 05:59:22;;;;;;;3.63;3.30;;;;;;;;;;5135987;28;20953;-70
2023/11/06 06:01:49;;;;;;;6.93;3.30;;;;;;;;;;5138683;27;20461;-70
2023/11/06 06:04:16;;;;;;;5.07;3.10;;;;;;;;;;5132931;27;20487;-69
2023/11/06 06:06:43;;;;;;;5.13;3.80;;;;;;;;;;5133673;27;20862;-69
2023/11/06 06:09:10;;;;;;;19.37;3.67;;;;;;;;;;5130784;27;20446;-72
2023/11/06 06:11:38;;;;;;;8.33;3.93;;;;;;;;;;5137125;27;20488;-70
2023/11/06 06:14:04;;;;;;;6.63;3.53;;;;;;;;;;5135651;27;20460;-71
2023/11/06 06:16:31;;;;;;;4.00;3.60;;;;;;;;;;5131738;27;20478;-69
2023/11/06 06:18:57;;;;;;;3.50;3.20;;;;;;;;;;5130610;27;20557;-70
2023/11/06 06:21:24;;;;;;;6.07;3.57;;;;;;;;;;5138617;27;20540;-71
2023/11/06 06:23:51;;;;;;;6.30;3.33;;;;;;;;;;5130238;27;20965;-71
2023/11/06 06:26:18;;;;;;;7.07;3.10;;;;;;;;;;5136301;27;20486;-69
2023/11/06 06:28:44;;;;;;;6.03;3.63;;;;;;;;;;5133171;27;20496;-71
2023/11/06 06:31:11;;;;;;;3.63;3.33;;;;;;;;;;5126064;27;20515;-70
2023/11/06 06:33:37;;;;;;;9.23;3.23;;;;;;;;;;5148438;27;20510;-70
2023/11/06 06:36:04;;;;;;;7.63;3.90;;;;;;;;;;5133961;27;20448;-70
2023/11/06 06:38:30;;;;;;;4.83;3.60;;;;;;;;;;5121769;27;20926;-70
2023/11/06 06:40:58;;;;;;;3.47;3.00;;;;;;;;;;5137783;27;20466;-69
2023/11/06 06:43:24;;;;;;;5.40;3.30;;;;;;;;;;5123022;27;20541;-69
2023/11/06 06:45:51;;;;;;;3.70;3.37;;;;;;;;;;5131203;27;20522;-69
2023/11/06 06:48:17;;;;;;;5.67;3.90;;;;;;;;;;5133141;27;20481;-69
2023/11/06 06:50:44;;;;;;;5.07;2.93;;;;;;;;;;5131156;27;20484;-69
2023/11/06 06:53:10;;;;;;;3.53;3.23;;;;;;;;;;5137292;27;20465;-69
2023/11/06 06:55:37;;;;;;;4.30;3.10;;;;;;;;;;5137071;27;20502;-69
2023/11/06 06:58:05;;;;;;;8.63;2.53;;;;;;;;;;5139235;27;20449;-70
2023/11/06 07:00:32;;;;;;;4.20;2.77;;;;;;;;;;5143298;27;20440;-70
2023/11/06 07:02:59;;;;;;;5.80;2.77;;;;;;;;;;5140934;27;20448;-70
2023/11/06 07:05:26;;;;;;;4.90;2.73;;;;;;;;;;5144693;27;20463;-70
2023/11/06 07:07:52;;;;;;;5.27;3.00;;;;;;;;;;5141213;27;20456;-70
2023/11/06 07:10:18;;;;;;;3.07;2.50;;;;;;;;;;5137269;27;20509;-71
2023/11/06 07:12:45;;;;;;;7.83;3.37;;;;;;;;;;5129587;27;20922;-71
2023/11/06 07:15:13;;;;;;;5.13;3.63;;;;;;;;;;5150719;27;20484;-70
2023/11/06 07:17:39;;;;;;;2.60;1.93;;;;;;;;;;5150066;27;20456;-70
2023/11/06 07:20:06;;;;;;;5.20;2.10;;;;;;;;;;5133775;27;20467;-70
2023/11/06 07:22:33;;;;;;;5.63;2.70;;;;;;;;;;5134069;27;20446;-69
2023/11/06 07:25:00;;;;;;;5.30;2.13;;;;;;;;;;5128763;27;20437;-70
2023/11/06 07:27:26;;;;;;;4.53;2.30;;;;;;;;;;5134541;27;20457;-70
2023/11/06 07:29:53;;;;;;;3.10;2.50;;;;;;;;;;5124875;27;20457;-70
2023/11/06 07:32:21;;;;;;;3.23;2.20;;;;;;;;;;5127320;27;20486;-70
2023/11/06 07:34:49;;;;;;;3.93;2.57;;;;;;;;;;5142746;27;20487;-69
2023/11/06 07:37:16;;;;;;;6.33;2.40;;;;;;;;;;5135764;27;20475;-69
2023/11/06 07:39:43;;;;;;;2.90;2.10;;;;;;;;;;5128658;27;20445;-69
2023/11/06 07:42:11;;;;;;;6.27;2.40;;;;;;;;;;5126847;27;20462;-69
2023/11/06 07:44:37;;;;;;;3.90;2.50;;;;;;;;;;5125165;27;20517;-69
2023/11/06 07:47:05;;;;;;;6.70;2.43;;;;;;;;;;5137934;27;20473;-69
2023/11/06 07:49:33;;;;;;;4.60;2.13;;;;;;;;;;5137166;27;20473;-69
2023/11/06 07:52:00;;;;;;;6.53;2.50;;;;;;;;;;5133837;27;20513;-69
2023/11/06 07:54:26;;;;;;;2.77;2.40;;;;;;;;;;5128530;27;20464;-70
2023/11/06 07:56:53;;;;;;;8.53;2.53;;;;;;;;;;5119737;27;20487;-69
2023/11/06 07:59:19;;;;;;;3.70;2.47;;;;;;;;;;5123270;27;20545;-70
2023/11/06 08:01:46;;;;;;;4.40;2.47;;;;;;;;;;5143810;27;20448;-70
2023/11/06 08:04:12;;;;;;;3.13;2.47;;;;;;;;;;5130663;27;20468;-71
2023/11/06 08:06:40;;;;;;;4.80;2.80;;;;;;;;;;5143313;27;20471;-70
2023/11/06 08:09:06;;;;;;;9.17;2.63;;;;;;;;;;5124536;27;20472;-70
2023/11/06 08:11:35;;;;;;;4.60;2.57;;;;;;;;;;5132583;27;20458;-70
2023/11/06 08:14:02;;;;;;;2.80;2.60;;;;;;;;;;5122393;27;20892;-70
2023/11/06 08:16:31;;;;;;;8.00;3.07;;;;;;;;;;5134553;27;20472;-70
2023/11/06 08:18:58;;;;;;;4.63;3.17;;;;;;;;;;5120364;27;20468;-69
2023/11/06 08:21:24;;;;;;;7.73;2.70;;;;;;;;;;5124589;27;20463;-69
2023/11/06 08:23:52;;;;;;;3.70;2.67;;;;;;;;;;5137150;27;20469;-69
2023/11/06 08:26:20;;;;;;;5.00;2.77;;;;;;;;;;5137431;27;20492;-70
2023/11/06 08:28:46;;;;;;;3.10;2.70;;;;;;;;;;5125340;27;20864;-68
2023/11/06 08:31:15;;;;;;;5.50;3.53;;;;;;;;;;5127700;27;21414;-68
2023/11/06 08:33:41;;;;;;;10.33;3.60;;;;;;;;;;5133738;27;20560;-68
2023/11/06 08:36:08;;;;;;;5.00;3.57;;;;;;;;;;5130755;27;20874;-67
2023/11/06 08:38:35;;;;;;;11.50;3.07;;;;;;;;;;5127432;27;20517;-67
2023/11/06 08:41:07;;;;;;;4.40;3.00;;;;;;;;;;5132523;27;20488;-67
2023/11/06 08:43:33;;;;;;;5.97;3.60;;;;;;;;;;5123582;27;20983;-66
2023/11/06 08:46:00;;;;;;;5.07;3.43;;;;;;;;;;5128045;27;20490;-66
2023/11/06 08:48:27;;;;;;;12.47;3.27;;;;;;;;;;5128042;27;20514;-67
2023/11/06 08:50:53;;;;;;;9.60;3.93;;;;;;;;;;5132856;27;20569;-67
2023/11/06 08:53:20;;;;;;;6.50;3.10;;;;;;;;;;5126366;27;20483;-66
2023/11/06 08:55:47;;;;;;;4.00;2.93;;;;;;;;;;5123371;27;20470;-66
2023/11/06 08:58:16;;;;;;;5.90;3.90;;;;;;;;;;5145126;27;20456;-66
2023/11/06 09:00:42;;;;;;;5.20;3.20;;;;;;;;;;5142014;27;20449;-66
2023/11/06 09:03:09;;;;;;;7.23;3.40;;;;;;;;;;5133063;27;21051;-66
2023/11/06 09:05:36;;;;;;;13.03;4.83;;;;;;;;;;5130798;27;20452;-66
2023/11/06 09:08:02;;;;;;;5.27;3.60;;;;;;;;;;5121161;27;20446;-66
2023/11/06 09:10:29;;;;;;;12.40;3.20;;;;;;;;;;5140194;27;21013;-66
2023/11/06 09:12:57;;;;;;;9.60;3.53;;;;;;;;;;5143205;27;20510;-66
2023/11/06 09:15:25;;;;;;;7.50;4.50;;;;;;;;;;5138564;27;20928;-68
2023/11/06 09:17:51;;;;;;;6.47;2.90;;;;;;;;;;5138387;27;20521;-69
2023/11/06 09:20:17;;;;;;;12.53;4.00;;;;;;;;;;5135365;27;20503;-69
2023/11/06 09:22:44;;;;;;;7.13;4.13;;;;;;;;;;5126666;27;20474;-69
2023/11/06 09:25:10;;;;;;;8.50;3.63;;;;;;;;;;5133717;27;20465;-69
2023/11/06 09:27:38;;;;;;;8.50;3.47;;;;;;;;;;5125388;27;20465;-69
2023/11/06 09:30:07;;;;;;;9.30;3.37;;;;;;;;;;5133419;27;20450;-68
2023/11/06 09:32:35;;;;;;;7.80;4.83;;;;;;;;;;5131612;28;20456;-69
2023/11/06 09:35:03;;;;;;;4.90;2.90;;;;;;;;;;5127452;28;20509;-68
2023/11/06 09:37:30;;;;;;;4.30;3.40;;;;;;;;;;5125824;28;20469;-69
2023/11/06 09:39:56;;;;;;;5.17;3.43;;;;;;;;;;5127271;27;20473;-69
2023/11/06 09:42:23;;;;;;;5.77;3.80;;;;;;;;;;5117734;27;20493;-69
2023/11/06 09:44:49;;;;;;;4.13;3.53;;;;;;;;;;5144447;27;20495;-69
2023/11/06 09:47:16;;;;;;;10.47;3.70;;;;;;;;;;5138092;27;20456;-68
2023/11/06 09:49:49;;;;;;;6.37;3.20;;;;;;;;;;5140423;27;20475;-68
2023/11/06 09:52:15;;;;;;;12.93;5.80;;;;;;;;;;5126038;27;20481;-68
2023/11/06 09:54:44;;;;;;;7.80;3.67;;;;;;;;;;5136057;27;20560;-68
2023/11/06 09:57:12;;;;;;;7.47;3.90;;;;;;;;;;5141517;27;20480;-68
2023/11/06 09:59:39;;;;;;;5.63;3.63;;;;;;;;;;5136916;27;20454;-68
2023/11/06 10:02:05;;;;;;;9.97;4.50;;;;;;;;;;5139934;27;20487;-68
2023/11/06 10:04:32;;;;;;;4.17;3.47;;;;;;;;;;5132173;27;20455;-68
2023/11/06 10:07:00;;;;;;;3.57;3.27;;;;;;;;;;5134448;27;20446;-68
2023/11/06 10:09:27;;;;;;;11.83;4.47;;;;;;;;;;5136678;27;20478;-69
2023/11/06 10:11:57;;;;;;;3.70;3.10;;;;;;;;;;5127436;27;20478;-67
2023/11/06 10:14:36;;;;;;;10.50;4.40;;;;;;;;;;5133817;27;20476;-68
2023/11/06 10:17:03;;;;;;;5.90;4.00;;;;;;;;;;5140195;27;20478;-68
2023/11/06 10:19:29;;;;;;;5.33;3.40;;;;;;;;;;5132943;27;21013;-68
2023/11/06 10:21:56;;;;;;;6.43;4.13;;;;;;;;;;5140354;27;20968;-68
2023/11/06 10:24:24;;;;;;;4.17;3.67;;;;;;;;;;5129906;27;20651;-67
2023/11/06 10:26:50;;;;;;;9.57;5.20;;;;;;;;;;5123843;27;20482;-68
2023/11/06 10:29:17;;;;;;;8.83;4.53;;;;;;;;;;5130066;27;20453;-68
2023/11/06 10:31:44;;;;;;;7.87;3.00;;;;;;;;;;5145107;27;20473;-68
2023/11/06 10:34:23;;;;;;;10.83;3.90;;;;;;;;;;5126694;27;20925;-68
2023/11/06 10:36:59;;;;;;;4.30;3.60;;;;;;;;;;5143000;27;20487;-66
2023/11/06 10:39:27;;;;;;;4.70;3.40;;;;;;;;;;5132969;27;20529;-66
2023/11/06 10:42:00;;;;;;;5.30;3.40;;;;;;;;;;5130042;27;20475;-65
2023/11/06 10:44:26;;;;;;;7.27;3.80;;;;;;;;;;5137623;27;20441;-66
2023/11/06 10:46:53;;;;;;;3.87;3.00;;;;;;;;;;5139218;27;20453;-65
2023/11/06 10:49:24;;;;;;;9.73;3.97;;;;;;;;;;5130993;27;20445;-66
2023/11/06 10:51:52;;;;;;;6.00;3.67;;;;;;;;;;5131997;27;20458;-65
2023/11/06 10:54:19;;;;;;;7.73;4.10;;;;;;;;;;5128083;27;20517;-65
2023/11/06 10:56:47;;;;;;;5.53;3.30;;;;;;;;;;5134794;27;20458;-65
2023/11/06 10:59:15;;;;;;;8.40;3.70;;;;;;;;;;5128078;27;20511;-67
2023/11/06 11:01:42;;;;;;;3.80;3.10;;;;;;;;;;5118843;27;20458;-69
2023/11/06 11:04:10;;;;;;;7.60;3.23;;;;;;;;;;5131129;27;20434;-67
2023/11/06 11:06:39;;;;;;;8.30;3.50;;;;;;;;;;5138206;27;20499;-67
2023/11/06 11:09:06;;;;;;;5.37;3.93;;;;;;;;;;5142506;27;20456;-68
2023/11/06 11:11:32;;;;;;;6.10;3.80;;;;;;;;;;5136466;27;20459;-71
2023/11/06 11:14:00;;;;;;;5.43;3.20;;;;;;;;;;5131622;27;20532;-73
2023/11/06 11:16:37;;;;;;;5.80;3.50;;;;;;;;;;5139891;27;20463;-67
2023/11/06 11:19:18;;;;;;;4.50;3.47;;;;;;;;;;5139005;27;20439;-67
2023/11/06 11:22:03;;;;;;;6.83;4.00;;;;;;;;;;5131754;27;20586;-68
2023/11/06 11:24:49;;;;;;;7.80;3.63;;;;;;;;;;5134187;27;20481;-67
2023/11/06 11:27:16;;;;;;;6.17;4.37;;;;;;;;;;5138680;27;20478;-67
2023/11/06 11:29:58;;;;;;;7.80;4.20;;;;;;;;;;5135100;27;20489;-67
2023/11/06 11:32:47;;;;;;;4.17;3.60;;;;;;;;;;5106952;28;20474;-68
2023/11/06 11:35:32;;;;;;;5.67;3.30;;;;;;;;;;5106634;27;20550;-68
2023/11/06 11:37:59;;;;;;;8.47;3.40;;;;;;;;;;5111244;28;20485;-67
2023/11/06 11:40:37;;;;;;;6.63;3.17;;;;;;;;;;5111011;28;20496;-66
2023/11/06 11:43:18;;;;;;;8.97;3.63;;;;;;;;;;5102730;28;20482;-66
2023/11/06 11:45:45;;;;;;;8.10;3.90;;;;;;;;;;5106661;28;20456;-69
2023/11/06 11:48:12;;;;;;;4.43;3.10;;;;;;;;;;5115690;27;20480;-68
2023/11/06 11:50:41;;;;;;;7.47;3.53;;;;;;;;;;5109664;28;20519;-67
2023/11/06 11:53:08;;;;;;;4.60;3.90;;;;;;;;;;5112737;27;20478;-69
2023/11/06 11:55:37;;;;;;;6.33;3.67;;;;;;;;;;5110478;27;20438;-70
2023/11/06 11:58:06;;;;;;;3.77;3.30;;;;;;;;;;5114450;27;20454;-72
2023/11/06 12:00:33;;;;;;;7.17;3.90;;;;;;;;;;5099766;28;20455;-71
2023/11/06 12:03:07;;;;;;;6.03;3.47;;;;;;;;;;5114928;27;20450;-71
2023/11/06 12:05:36;;;;;;;7.17;4.17;;;;;;;;;;5122449;27;20485;-71
2023/11/06 12:08:13;;;;;;;5.50;3.40;;;;;;;;;;5103711;27;20522;-71
2023/11/06 12:10:40;;;;;;;5.17;4.00;;;;;;;;;;5106533;27;20450;-71
2023/11/06 12:13:12;;;;;;;9.23;3.63;;;;;;;;;;5110154;28;20460;-71
2023/11/06 12:15:39;;;;;;;5.30;3.47;;;;;;;;;;5100144;28;20495;-71
2023/11/06 12:18:08;;;;;;;3.83;3.50;;;;;;;;;;5115434;27;20442;-71
2023/11/06 12:20:36;;;;;;;8.23;3.50;;;;;;;;;;5104087;27;20463;-68
2023/11/06 12:23:02;;;;;;;6.77;3.80;;;;;;;;;;5114420;28;20465;-67
2023/11/06 12:25:30;;;;;;;10.20;3.90;;;;;;;;;;5104083;27;20500;-68
2023/11/06 12:28:06;;;;;;;4.33;3.40;;;;;;;;;;5110703;27;20564;-68
2023/11/06 12:30:33;;;;;;;4.23;3.20;;;;;;;;;;5117871;27;21057;-68
2023/11/06 12:33:09;;;;;;;4.20;3.60;;;;;;;;;;5121943;27;20450;-65
2023/11/06 12:35:39;;;;;;;7.37;3.50;;;;;;;;;;5127529;27;20860;-68
2023/11/06 12:38:05;;;;;;;5.57;3.47;;;;;;;;;;5126611;27;20453;-69
2023/11/06 12:40:32;;;;;;;3.73;3.43;;;;;;;;;;5133381;27;20458;-69
2023/11/06 12:43:00;;;;;;;5.13;3.43;;;;;;;;;;5135849;27;20454;-69
2023/11/06 12:45:36;;;;;;;4.00;3.60;;;;;;;;;;5134151;27;20535;-65
2023/11/06 12:48:17;;;;;;;6.80;3.50;;;;;;;;;;5128962;27;20506;-67
2023/11/06 12:50:54;;;;;;;5.00;3.23;;;;;;;;;;5130193;27;20457;-66
2023/11/06 12:53:21;;;;;;;7.30;3.23;;;;;;;;;;5131253;27;20462;-66
2023/11/06 12:55:49;;;;;;;6.20;2.70;;;;;;;;;;5124656;27;20512;-66
2023/11/06 12:58:16;;;;;;;4.23;2.67;;;;;;;;;;5134220;27;20515;-67
2023/11/06 13:00:47;;;;;;;8.17;3.80;;;;;;;;;;5131952;27;20444;-66
2023/11/06 13:03:13;;;;;;;3.90;3.60;;;;;;;;;;5132054;27;20468;-66
2023/11/06 13:05:41;;;;;;;5.00;3.70;;;;;;;;;;5128474;27;20461;-67
2023/11/06 13:08:09;;;;;;;4.83;3.57;;;;;;;;;;5136602;27;20468;-67
2023/11/06 13:10:36;;;;;;;6.40;3.20;;;;;;;;;;5135507;27;20490;-66
2023/11/06 13:13:03;;;;;;;4.43;3.60;;;;;;;;;;5143344;27;20449;-66
2023/11/06 13:15:30;;;;;;;4.40;2.97;;;;;;;;;;5138179;27;20472;-70
2023/11/06 13:17:56;;;;;;;3.80;3.50;;;;;;;;;;5128343;27;20455;-70
2023/11/06 13:20:28;;;;;;;8.03;3.53;;;;;;;;;;5133929;27;21615;-70
2023/11/06 13:22:56;;;;;;;3.90;3.17;;;;;;;;;;5138395;27;21239;-70
2023/11/06 13:25:25;;;;;;;4.97;2.57;;;;;;;;;;5138083;27;20454;-69
2023/11/06 13:27:52;;;;;;;5.23;2.80;;;;;;;;;;5133708;27;20473;-70
2023/11/06 13:30:20;;;;;;;4.17;2.33;;;;;;;;;;5138392;27;20588;-70
2023/11/06 13:32:47;;;;;;;3.80;1.93;;;;;;;;;;5133633;28;20446;-70
2023/11/06 13:35:14;;;;;;;13.47;2.70;;;;;;;;;;5135847;28;20504;-70
2023/11/06 13:37:41;;;;;;;5.10;2.50;;;;;;;;;;5133878;28;20450;-70
2023/11/06 13:40:22;;;;;;;3.10;2.30;;;;;;;;;;5136185;27;20463;-70
2023/11/06 13:42:52;;;;;;;4.67;2.70;;;;;;;;;;5131523;28;21330;-71
2023/11/06 13:45:21;;;;;;;15.20;2.30;;;;;;;;;;5137771;27;20458;-71
2023/11/06 13:47:52;;;;;;;6.40;2.80;;;;;;;;;;5138680;27;20483;-71
2023/11/06 13:50:26;;;;;;;4.30;2.27;;;;;;;;;;5133189;28;20450;-71
2023/11/06 13:52:59;;;;;;;7.53;3.17;;;;;;;;;;5121697;27;20500;-70
2023/11/06 13:55:31;;;;;;;5.00;2.50;;;;;;;;;;5132698;28;20477;-70
2023/11/06 13:57:59;;;;;;;7.60;3.60;;;;;;;;;;5130909;28;20472;-70
2023/11/06 14:00:32;;;;;;;7.13;4.10;;;;;;;;;;5121962;28;20442;-71
2023/11/06 14:02:59;;;;;;;3.50;3.20;;;;;;;;;;5124371;28;20450;-71
2023/11/06 14:05:26;;;;;;;5.17;3.03;;;;;;;;;;5126855;28;20471;-70
2023/11/06 14:07:53;;;;;;;6.87;4.40;;;;;;;;;;5127376;28;20452;-70
2023/11/06 14:10:30;;;;;;;5.13;2.93;;;;;;;;;;5134998;27;20462;-70
2023/11/06 14:12:57;;;;;;;9.93;3.03;;;;;;;;;;5128849;28;20476;-71
2023/11/06 14:15:25;;;;;;;4.13;2.50;;;;;;;;;;5137977;28;20480;-71
2023/11/06 14:17:53;;;;;;;2.80;1.60;;;;;;;;;;5123534;28;20489;-70
2023/11/06 14:20:21;;;;;;;4.10;2.50;;;;;;;;;;5133243;28;20492;-71
2023/11/06 14:22:48;;;;;;;7.97;2.40;;;;;;;;;;5133672;28;20441;-71
2023/11/06 14:25:15;;;;;;;5.50;3.63;;;;;;;;;;5137051;27;20560;-70
2023/11/06 14:27:42;;;;;;;6.40;2.73;;;;;;;;;;5127287;28;20464;-71
2023/11/06 14:30:13;;;;;;;5.37;3.13;;;;;;;;;;5132171;28;20506;-70
2023/11/06 14:32:41;;;;;;;5.13;3.57;;;;;;;;;;5133361;28;20469;-70
2023/11/06 14:35:10;;;;;;;4.90;2.87;;;;;;;;;;5132371;28;20516;-70
2023/11/06 14:37:37;;;;;;;4.23;3.10;;;;;;;;;;5131535;27;21228;-70
2023/11/06 14:40:05;;;;;;;4.80;2.87;;;;;;;;;;5134494;27;20461;-71
2023/11/06 14:42:31;;;;;;;4.17;3.10;;;;;;;;;;5135496;27;20500;-70
2023/11/06 14:44:59;;;;;;;6.07;3.57;;;;;;;;;;5139356;27;20833;-69
2023/11/06 14:47:25;;;;;;;3.60;3.30;;;;;;;;;;5139563;27;20457;-69